This is the latest recevied weather packets stored in our database for station/object OE5MMP-13. If no packets are shown the sender has not sent any weather packets the latest 10 day(s).
| Time | Temp. | Humidity | Pressure | Rain* | Wind** | Luminosity | Snow |
|---|---|---|---|---|---|---|---|
| 1788676992 | 16.11° C | 64% | 1027.8 hPa | 0 mm | - | 324 W/m² | - |
| 1788676392 | 16.11° C | 62% | 1027.8 hPa | 0 mm | - | 296 W/m² | - |
| 1788675792 | 16.67° C | 63% | 1027.9 hPa | 0 mm | - | 271 W/m² | - |
| 1788675192 | 16.11° C | 70% | 1027.8 hPa | 0 mm | - | 238 W/m² | - |
| 1788674592 | 15° C | 73% | 1027.6 hPa | 0 mm | - | 204 W/m² | - |
| 1788673992 | 13.33° C | 77% | 1027.3 hPa | 0 mm | - | 166 W/m² | - |
| 1788673392 | 12.78° C | 76% | 1027.2 hPa | 0 mm | - | 132 W/m² | - |
| 1788672791 | 12.22° C | 78% | 1027.1 hPa | 0 mm | - | 105 W/m² | - |
| 1788672192 | 12.22° C | 78% | 1027.1 hPa | 0 mm | - | 79 W/m² | - |
| 1788671592 | 12.22° C | 77% | 1027.1 hPa | 0 mm | - | 67 W/m² | - |
| 1788670992 | 12.22° C | 78% | 1026.9 hPa | 0 mm | - | 35 W/m² | - |
| 1788670392 | 12.22° C | 78% | 1027 hPa | 0 mm | - | 16 W/m² | - |
| 1788669791 | 12.22° C | 78% | 1026.9 hPa | 0 mm | - | 11 W/m² | - |
| 1788669192 | 12.22° C | 78% | 1027 hPa | 0 mm | - | 5 W/m² | - |
| 1788668591 | 12.22° C | 77% | 1026.8 hPa | 0 mm | - | 0 W/m² | - |
| 1788667991 | 12.22° C | 78% | 1026.7 hPa | 0 mm | - | 0 W/m² | - |
| 1788667391 | 12.22° C | 79% | 1026.7 hPa | 0 mm | - | 0 W/m² | - |
| 1788666791 | 12.22° C | 79% | 1026.6 hPa | 0 mm | - | 0 W/m² | - |
| 1788666191 | 12.22° C | 78% | 1026.5 hPa | 0 mm | - | 0 W/m² | - |
| 1788665591 | 12.22° C | 78% | 1026.6 hPa | 0 mm | - | 0 W/m² | - |
| 1788665022 | 12.78° C | 78% | 1026.5 hPa | 0 mm | - | 0 W/m² | - |
| 1788664391 | 12.78° C | 77% | 1026.6 hPa | 0 mm | - | 0 W/m² | - |
| 1788663791 | 12.78° C | 79% | 1026.6 hPa | 0 mm | - | 0 W/m² | - |
| 1788663191 | 12.78° C | 79% | 1026.4 hPa | 0 mm | - | 0 W/m² | - |
| 1788662591 | 13.33° C | 78% | 1026.6 hPa | 0 mm | - | 0 W/m² | - |
* Rain latest hour (hover to see other rain measurements)
** Current wind speed in m/s (hover to see current wind gust speed)